Time,TemperatureF,DewpointF,PressureIn,WindDirection,WindDirectionDegrees,WindSpeedMPH,WindSpeedGustMPH,Humidity,HourlyPrecipIn,Conditions,Clouds,dailyrainin,SoftwareType,DateUTC
2013-02-27 00:02:00,31.0,29.0,29.81,NW,315,12.0,16.0,91,-99.99,,,-99.99,,2013-02-27 06:02:00,
2013-02-27 00:11:00,31.0,29.0,29.81,WNW,292,11.0,16.0,92,-99.99,,,-99.99,,2013-02-27 06:11:00,
2013-02-27 00:21:00,31.0,29.0,29.81,WNW,292,13.0,17.0,92,-99.99,,,-99.99,,2013-02-27 06:21:00,
2013-02-27 00:33:00,31.0,29.0,29.81,WNW,292,11.0,15.0,92,-99.99,,,-99.99,,2013-02-27 06:33:00,
2013-02-27 00:41:00,31.0,29.0,29.81,NW,315,12.0,19.0,91,-99.99,,,-99.99,,2013-02-27 06:41:00,
2013-02-27 00:51:00,31.0,29.0,29.81,NW,315,11.0,17.0,92,-99.99,,,-99.99,,2013-02-27 06:51:00,
2013-02-27 01:01:00,31.0,29.0,29.81,NW,315,11.0,15.0,91,-99.99,,,-99.99,,2013-02-27 07:01:00,
2013-02-27 01:12:00,31.0,29.0,29.82,WNW,292,12.0,16.0,91,-99.99,,,-99.99,,2013-02-27 07:12:00,
2013-02-27 01:21:00,31.0,28.0,29.81,WNW,292,11.0,15.0,91,-99.99,,,-99.99,,2013-02-27 07:21:00,
2013-02-27 01:32:00,31.0,29.0,29.81,WNW,292,12.0,15.0,92,-99.99,,,-99.99,,2013-02-27 07:32:00,
2013-02-27 01:41:00,31.0,29.0,29.82,NW,315,10.0,16.0,92,-99.99,,,-99.99,,2013-02-27 07:41:00,
2013-02-27 01:51:00,30.0,29.0,29.82,WNW,292,12.0,15.0,93,-99.99,,,-99.99,,2013-02-27 07:51:00,
2013-02-27 02:01:00,30.0,29.0,29.82,West,270,10.0,13.0,93,-99.99,,,-99.99,,2013-02-27 08:01:00,
2013-02-27 02:11:00,30.0,29.0,29.82,WNW,292,10.0,13.0,94,-99.99,,,-99.99,,2013-02-27 08:11:00,
2013-02-27 02:21:00,30.0,29.0,29.82,WNW,292,10.0,14.0,95,-99.99,,,-99.99,,2013-02-27 08:21:00,
2013-02-27 02:32:00,30.0,29.0,29.82,NW,315,9.0,13.0,95,-99.99,,,-99.99,,2013-02-27 08:32:00,
2013-02-27 02:41:00,30.0,29.0,29.81,WNW,292,10.0,14.0,95,-99.99,,,-99.99,,2013-02-27 08:41:00,
2013-02-27 02:52:00,30.0,29.0,29.80,WNW,292,10.0,13.0,95,-99.99,,,-99.99,,2013-02-27 08:52:00,
2013-02-27 03:02:00,30.0,29.0,29.80,NW,315,9.0,12.0,96,-99.99,,,-99.99,,2013-02-27 09:02:00,
2013-02-27 03:11:00,30.0,29.0,29.81,NW,315,10.0,15.0,96,-99.99,,,-99.99,,2013-02-27 09:11:00,
2013-02-27 03:21:00,30.0,29.0,29.80,WNW,292,9.0,13.0,96,-99.99,,,-99.99,,2013-02-27 09:21:00,
2013-02-27 03:32:00,29.0,29.0,29.80,WNW,292,9.0,13.0,96,-99.99,,,-99.99,,2013-02-27 09:32:00,
2013-02-27 03:41:00,29.0,29.0,29.81,WNW,292,9.0,11.0,96,-99.99,,,-99.99,,2013-02-27 09:41:00,
2013-02-27 03:51:00,29.0,28.0,29.81,WNW,292,8.0,11.0,96,-99.99,,,-99.99,,2013-02-27 09:51:00,
2013-02-27 04:01:00,29.0,28.0,29.81,WNW,292,8.0,11.0,96,-99.99,,,-99.99,,2013-02-27 10:01:00,
2013-02-27 04:12:00,29.0,28.0,29.82,WNW,292,9.0,13.0,95,-99.99,,,-99.99,,2013-02-27 10:12:00,
2013-02-27 04:21:00,29.0,28.0,29.82,WNW,292,8.0,12.0,95,-99.99,,,-99.99,,2013-02-27 10:21:00,
2013-02-27 04:32:00,29.0,28.0,29.83,WNW,292,8.0,11.0,95,-99.99,,,-99.99,,2013-02-27 10:32:00,
2013-02-27 04:42:00,29.0,28.0,29.82,West,270,8.0,11.0,95,-99.99,,,-99.99,,2013-02-27 10:42:00,
2013-02-27 04:52:00,29.0,28.0,29.83,WNW,292,8.0,12.0,96,-99.99,,,-99.99,,2013-02-27 10:52:00,
2013-02-27 05:02:00,29.0,28.0,29.83,West,270,9.0,12.0,96,-99.99,,,-99.99,,2013-02-27 11:02:00,
2013-02-27 05:12:00,29.0,28.0,29.84,West,270,8.0,11.0,96,-99.99,,,-99.99,,2013-02-27 11:12:00,
2013-02-27 05:22:00,29.0,28.0,29.84,West,270,8.0,10.0,96,-99.99,,,-99.99,,2013-02-27 11:22:00,
2013-02-27 05:32:00,29.0,28.0,29.84,West,270,9.0,11.0,97,-99.99,,,-99.99,,2013-02-27 11:32:00,
2013-02-27 05:41:00,29.0,28.0,29.84,WSW,247,9.0,11.0,97,-99.99,,,-99.99,,2013-02-27 11:41:00,
2013-02-27 05:52:00,29.0,28.0,29.84,West,270,9.0,12.0,97,-99.99,,,-99.99,,2013-02-27 11:52:00,
2013-02-27 06:02:00,29.0,28.0,29.84,West,270,9.0,11.0,97,-99.99,,,-99.99,,2013-02-27 12:02:00,
2013-02-27 06:12:00,29.0,28.0,29.85,West,270,10.0,13.0,97,-99.99,,,-99.99,,2013-02-27 12:12:00,
2013-02-27 06:22:00,29.0,28.0,29.84,West,270,9.0,12.0,98,-99.99,,,-99.99,,2013-02-27 12:22:00,
2013-02-27 06:32:00,29.0,28.0,29.85,West,270,10.0,13.0,98,-99.99,,,-99.99,,2013-02-27 12:32:00,
2013-02-27 06:42:00,29.0,28.0,29.85,West,270,11.0,13.0,98,-99.99,,,-99.99,,2013-02-27 12:42:00,
2013-02-27 06:52:00,29.0,28.0,29.85,West,270,11.0,16.0,98,-99.99,,,-99.99,,2013-02-27 12:52:00,
2013-02-27 07:02:00,29.0,28.0,29.85,WNW,292,11.0,14.0,98,-99.99,,,-99.99,,2013-02-27 13:02:00,
2013-02-27 07:11:00,29.0,28.0,29.85,West,270,10.0,14.0,98,-99.99,,,-99.99,,2013-02-27 13:11:00,
2013-02-27 07:22:00,29.0,28.0,29.85,WNW,292,11.0,16.0,98,-99.99,,,-99.99,,2013-02-27 13:22:00,
2013-02-27 07:32:00,29.0,28.0,29.86,WNW,292,10.0,14.0,98,-99.99,,,-99.99,,2013-02-27 13:32:00,
2013-02-27 07:42:00,29.0,28.0,29.86,WNW,292,12.0,18.0,98,-99.99,,,-99.99,,2013-02-27 13:42:00,
2013-02-27 07:52:00,29.0,28.0,29.86,WNW,292,10.0,14.0,97,-99.99,,,-99.99,,2013-02-27 13:52:00,
2013-02-27 08:02:00,29.0,29.0,29.86,West,270,10.0,13.0,97,-99.99,,,-99.99,,2013-02-27 14:02:00,
2013-02-27 08:12:00,29.0,29.0,29.86,West,270,10.0,14.0,97,-99.99,,,-99.99,,2013-02-27 14:12:00,
2013-02-27 08:21:00,29.0,29.0,29.87,West,270,10.0,14.0,97,-99.99,,,-99.99,,2013-02-27 14:21:00,
2013-02-27 08:32:00,29.0,29.0,29.87,West,270,11.0,15.0,97,-99.99,,,-99.99,,2013-02-27 14:32:00,
2013-02-27 08:42:00,29.0,29.0,29.87,WNW,292,11.0,14.0,96,-99.99,,,-99.99,,2013-02-27 14:42:00,
2013-02-27 08:52:00,29.0,28.0,29.88,WNW,292,13.0,17.0,95,-99.99,,,-99.99,,2013-02-27 14:52:00,
2013-02-27 09:02:00,29.0,28.0,29.88,WNW,292,13.0,19.0,94,-99.99,,,-99.99,,2013-02-27 15:02:00,
2013-02-27 09:12:00,29.0,28.0,29.88,West,270,11.0,16.0,93,-99.99,,,-99.99,,2013-02-27 15:12:00,
2013-02-27 09:22:00,29.0,28.0,29.88,WNW,292,12.0,17.0,93,-99.99,,,-99.99,,2013-02-27 15:22:00,
2013-02-27 09:32:00,29.0,27.0,29.89,WNW,292,14.0,18.0,93,-99.99,,,-99.99,,2013-02-27 15:32:00,
2013-02-27 09:42:00,29.0,27.0,29.89,West,270,12.0,16.0,93,-99.99,,,-99.99,,2013-02-27 15:42:00,
2013-02-27 09:52:00,29.0,27.0,29.89,WNW,292,11.0,16.0,92,-99.99,,,-99.99,,2013-02-27 15:52:00,
2013-02-27 10:02:00,29.0,27.0,29.89,WNW,292,13.0,18.0,91,-99.99,,,-99.99,,2013-02-27 16:02:00,
2013-02-27 10:11:00,29.0,27.0,29.89,West,270,13.0,17.0,90,-99.99,,,-99.99,,2013-02-27 16:11:00,
2013-02-27 10:22:00,29.0,27.0,29.90,West,270,14.0,18.0,89,-99.99,,,-99.99,,2013-02-27 16:22:00,
2013-02-27 10:32:00,29.0,27.0,29.90,WNW,292,13.0,19.0,89,-99.99,,,-99.99,,2013-02-27 16:32:00,
2013-02-27 10:42:00,30.0,26.0,29.90,WNW,292,16.0,23.0,87,-99.99,,,-99.99,,2013-02-27 16:42:00,
2013-02-27 10:52:00,30.0,27.0,29.90,WNW,292,14.0,18.0,88,-99.99,,,-99.99,,2013-02-27 16:52:00,
2013-02-27 11:02:00,30.0,27.0,29.90,WNW,292,11.0,14.0,88,-99.99,,,-99.99,,2013-02-27 17:02:00,
2013-02-27 11:11:00,30.0,27.0,29.90,WNW,292,12.0,17.0,89,-99.99,,,-99.99,,2013-02-27 17:11:00,
2013-02-27 11:21:00,30.0,27.0,29.91,West,270,13.0,19.0,88,-99.99,,,-99.99,,2013-02-27 17:21:00,
2013-02-27 11:32:00,30.0,27.0,29.91,WNW,292,11.0,17.0,88,-99.99,,,-99.99,,2013-02-27 17:32:00,
2013-02-27 11:42:00,30.0,27.0,29.91,NW,315,12.0,16.0,88,-99.99,,,-99.99,,2013-02-27 17:42:00,
2013-02-27 11:52:00,30.0,27.0,29.92,WNW,292,14.0,19.0,87,-99.99,,,-99.99,,2013-02-27 17:52:00,
2013-02-27 12:01:00,30.0,27.0,29.92,WNW,292,14.0,21.0,87,-99.99,,,-99.99,,2013-02-27 18:01:00,
2013-02-27 12:11:00,30.0,27.0,29.92,WNW,292,11.0,15.0,87,-99.99,,,-99.99,,2013-02-27 18:11:00,
2013-02-27 12:22:00,30.0,27.0,29.92,WNW,292,12.0,17.0,86,-99.99,,,-99.99,,2013-02-27 18:22:00,
2013-02-27 12:32:00,31.0,27.0,29.91,WNW,292,12.0,17.0,86,-99.99,,,-99.99,,2013-02-27 18:32:00,
2013-02-27 12:42:00,31.0,27.0,29.91,West,270,11.0,16.0,86,-99.99,,,-99.99,,2013-02-27 18:42:00,
2013-02-27 12:51:00,31.0,27.0,29.91,WNW,292,12.0,16.0,85,-99.99,,,-99.99,,2013-02-27 18:51:00,
2013-02-27 13:01:00,31.0,27.0,29.91,WNW,292,14.0,20.0,85,-99.99,,,-99.99,,2013-02-27 19:01:00,
2013-02-27 13:11:00,31.0,27.0,29.91,West,270,14.0,18.0,85,-99.99,,,-99.99,,2013-02-27 19:11:00,
2013-02-27 13:21:00,31.0,26.0,29.91,WNW,292,15.0,20.0,85,-99.99,,,-99.99,,2013-02-27 19:21:00,
2013-02-27 13:32:00,30.0,26.0,29.92,NW,315,17.0,22.0,83,-99.99,,,-99.99,,2013-02-27 19:32:00,
2013-02-27 13:42:00,31.0,26.0,29.91,WNW,292,13.0,18.0,83,-99.99,,,-99.99,,2013-02-27 19:42:00,
2013-02-27 13:52:00,31.0,26.0,29.91,WNW,292,15.0,21.0,83,-99.99,,,-99.99,,2013-02-27 19:52:00,
2013-02-27 14:01:00,31.0,26.0,29.91,WNW,292,16.0,20.0,84,-99.99,,,-99.99,,2013-02-27 20:01:00,
2013-02-27 14:11:00,31.0,27.0,29.92,WNW,292,14.0,18.0,84,-99.99,,,-99.99,,2013-02-27 20:11:00,
2013-02-27 14:21:00,31.0,27.0,29.91,West,270,16.0,20.0,84,-99.99,,,-99.99,,2013-02-27 20:21:00,
2013-02-27 14:32:00,31.0,27.0,29.91,WNW,292,15.0,20.0,84,-99.99,,,-99.99,,2013-02-27 20:32:00,
2013-02-27 14:42:00,31.0,27.0,29.91,WNW,292,15.0,21.0,84,-99.99,,,-99.99,,2013-02-27 20:42:00,
2013-02-27 14:52:00,31.0,27.0,29.92,WNW,292,13.0,17.0,84,-99.99,,,-99.99,,2013-02-27 20:52:00,
2013-02-27 15:02:00,31.0,26.0,29.92,WNW,292,17.0,22.0,84,-99.99,,,-99.99,,2013-02-27 21:02:00,
2013-02-27 15:11:00,31.0,27.0,29.93,WNW,292,14.0,19.0,85,-99.99,,,-99.99,,2013-02-27 21:11:00,
2013-02-27 15:21:00,31.0,27.0,29.93,WNW,292,13.0,18.0,86,-99.99,,,-99.99,,2013-02-27 21:21:00,
2013-02-27 15:32:00,31.0,27.0,29.93,WNW,292,11.0,16.0,86,-99.99,,,-99.99,,2013-02-27 21:32:00,
2013-02-27 15:42:00,31.0,27.0,29.93,WNW,292,11.0,15.0,87,-99.99,,,-99.99,,2013-02-27 21:42:00,
2013-02-27 15:51:00,30.0,27.0,29.94,NW,315,15.0,22.0,87,-99.99,,,-99.99,,2013-02-27 21:51:00,
2013-02-27 16:01:00,31.0,26.0,29.94,WNW,292,12.0,17.0,84,-99.99,,,-99.99,,2013-02-27 22:01:00,
2013-02-27 16:11:00,30.0,26.0,29.94,WNW,292,15.0,21.0,84,-99.99,,,-99.99,,2013-02-27 22:11:00,
2013-02-27 16:21:00,31.0,26.0,29.95,WNW,292,13.0,17.0,82,-99.99,,,-99.99,,2013-02-27 22:21:00,
2013-02-27 16:31:00,31.0,26.0,29.95,WNW,292,13.0,19.0,83,-99.99,,,-99.99,,2013-02-27 22:31:00,
2013-02-27 16:41:00,31.0,26.0,29.95,WNW,292,11.0,14.0,84,-99.99,,,-99.99,,2013-02-27 22:41:00,
2013-02-27 16:51:00,31.0,27.0,29.96,WNW,292,12.0,17.0,86,-99.99,,,-99.99,,2013-02-27 22:51:00,
2013-02-27 17:01:00,31.0,27.0,29.96,WNW,292,10.0,13.0,85,-99.99,,,-99.99,,2013-02-27 23:01:00,
2013-02-27 17:11:00,31.0,26.0,29.95,WNW,292,10.0,15.0,84,-99.99,,,-99.99,,2013-02-27 23:11:00,
2013-02-27 17:21:00,30.0,25.0,29.96,WNW,292,13.0,17.0,81,-99.99,,,-99.99,,2013-02-27 23:21:00,
2013-02-27 17:32:00,30.0,25.0,29.97,WNW,292,12.0,18.0,82,-99.99,,,-99.99,,2013-02-27 23:32:00,
2013-02-27 17:42:00,30.0,26.0,29.97,WNW,292,14.0,18.0,83,-99.99,,,-99.99,,2013-02-27 23:42:00,
2013-02-27 17:52:00,30.0,26.0,29.97,WNW,292,13.0,20.0,85,-99.99,,,-99.99,,2013-02-27 23:52:00,
2013-02-27 18:01:00,30.0,26.0,29.97,WNW,292,12.0,14.0,88,-99.99,,,-99.99,,2013-02-28 00:01:00,
2013-02-27 18:11:00,29.0,27.0,29.98,WNW,292,10.0,14.0,90,-99.99,,,-99.99,,2013-02-28 00:11:00,
2013-02-27 18:21:00,29.0,27.0,29.98,WNW,292,10.0,14.0,90,-99.99,,,-99.99,,2013-02-28 00:21:00,
2013-02-27 18:32:00,29.0,26.0,29.98,NW,315,10.0,14.0,89,-99.99,,,-99.99,,2013-02-28 00:32:00,
2013-02-27 18:42:00,29.0,26.0,29.98,WNW,292,10.0,13.0,87,-99.99,,,-99.99,,2013-02-28 00:42:00,
2013-02-27 18:51:00,29.0,25.0,29.98,WNW,292,8.0,12.0,85,-99.99,,,-99.99,,2013-02-28 00:51:00,
2013-02-27 19:01:00,29.0,25.0,29.98,WNW,292,8.0,11.0,84,-99.99,,,-99.99,,2013-02-28 01:01:00,
2013-02-27 19:11:00,29.0,25.0,29.98,WNW,292,7.0,9.0,84,-99.99,,,-99.99,,2013-02-28 01:11:00,
2013-02-27 19:21:00,29.0,24.0,29.98,West,270,8.0,10.0,83,-99.99,,,-99.99,,2013-02-28 01:21:00,
2013-02-27 19:32:00,28.0,24.0,29.98,West,270,6.0,9.0,84,-99.99,,,-99.99,,2013-02-28 01:32:00,
2013-02-27 19:41:00,28.0,24.0,29.98,West,270,6.0,7.0,85,-99.99,,,-99.99,,2013-02-28 01:41:00,
2013-02-27 19:51:00,28.0,23.0,29.98,West,270,5.0,7.0,84,-99.99,,,-99.99,,2013-02-28 01:51:00,
2013-02-27 20:01:00,27.0,23.0,29.98,West,270,6.0,7.0,84,-99.99,,,-99.99,,2013-02-28 02:01:00,
2013-02-27 20:11:00,28.0,24.0,29.98,West,270,6.0,8.0,83,-99.99,,,-99.99,,2013-02-28 02:11:00,
2013-02-27 20:22:00,28.0,24.0,29.98,WSW,247,5.0,7.0,84,-99.99,,,-99.99,,2013-02-28 02:22:00,
2013-02-27 20:31:00,28.0,24.0,29.98,West,270,4.0,5.0,84,-99.99,,,-99.99,,2013-02-28 02:31:00,
2013-02-27 20:41:00,28.0,24.0,29.98,West,270,4.0,5.0,84,-99.99,,,-99.99,,2013-02-28 02:41:00,
2013-02-27 20:51:00,28.0,24.0,29.98,West,270,4.0,5.0,84,-99.99,,,-99.99,,2013-02-28 02:51:00,
2013-02-27 21:01:00,28.0,24.0,29.98,WSW,247,4.0,4.0,86,-99.99,,,-99.99,,2013-02-28 03:01:00,
2013-02-27 21:11:00,27.0,24.0,29.98,SW,225,4.0,6.0,86,-99.99,,,-99.99,,2013-02-28 03:11:00,
2013-02-27 21:21:00,27.0,24.0,29.99,SW,225,3.0,4.0,86,-99.99,,,-99.99,,2013-02-28 03:21:00,
2013-02-27 21:32:00,27.0,23.0,29.99,SW,225,2.0,4.0,86,-99.99,,,-99.99,,2013-02-28 03:32:00,
2013-02-27 21:42:00,27.0,23.0,29.99,SW,225,3.0,4.0,87,-99.99,,,-99.99,,2013-02-28 03:42:00,
2013-02-27 21:52:00,26.0,23.0,29.99,SW,225,4.0,4.0,87,-99.99,,,-99.99,,2013-02-28 03:52:00,
2013-02-27 22:01:00,28.0,24.0,29.99,WNW,292,6.0,8.0,84,-99.99,,,-99.99,,2013-02-28 04:01:00,
2013-02-27 22:11:00,30.0,24.0,29.99,WNW,292,9.0,12.0,79,-99.99,,,-99.99,,2013-02-28 04:11:00,
2013-02-27 22:21:00,30.0,24.0,29.99,NW,315,8.0,10.0,79,-99.99,,,-99.99,,2013-02-28 04:21:00,
2013-02-27 22:32:00,30.0,24.0,30.00,WNW,292,7.0,9.0,79,-99.99,,,-99.99,,2013-02-28 04:32:00,
2013-02-27 22:42:00,29.0,24.0,30.00,West,270,7.0,8.0,81,-99.99,,,-99.99,,2013-02-28 04:42:00,
2013-02-27 22:51:00,29.0,25.0,30.00,West,270,6.0,8.0,82,-99.99,,,-99.99,,2013-02-28 04:51:00,
2013-02-27 23:01:00,29.0,25.0,30.00,West,270,6.0,8.0,82,-99.99,,,-99.99,,2013-02-28 05:01:00,
2013-02-27 23:11:00,30.0,25.0,29.99,WNW,292,7.0,8.0,82,-99.99,,,-99.99,,2013-02-28 05:11:00,
2013-02-27 23:22:00,30.0,25.0,30.00,West,270,8.0,11.0,81,-99.99,,,-99.99,,2013-02-28 05:22:00,
2013-02-27 23:31:00,31.0,25.0,30.00,West,270,9.0,11.0,79,-99.99,,,-99.99,,2013-02-28 05:31:00,
2013-02-27 23:42:00,31.0,25.0,30.00,WNW,292,9.0,13.0,79,-99.99,,,-99.99,,2013-02-28 05:42:00,
2013-02-27 23:52:00,31.0,25.0,30.00,WNW,292,9.0,12.0,79,-99.99,,,-99.99,,2013-02-28 05:52:00,